sensor_id;sensor_type;location;lat;lon;timestamp;P1;durP1;ratioP1;P2;durP2;ratioP2
23634;SDS011;11994;51.038;16.974;2023-01-10T00:01:15;13.20;;;10.20;;
23634;SDS011;11994;51.038;16.974;2023-01-10T00:03:41;14.20;;;10.00;;
23634;SDS011;11994;51.038;16.974;2023-01-10T00:06:06;15.40;;;9.90;;
23634;SDS011;11994;51.038;16.974;2023-01-10T00:08:31;13.90;;;9.80;;
23634;SDS011;11994;51.038;16.974;2023-01-10T00:10:57;15.80;;;10.70;;
23634;SDS011;11994;51.038;16.974;2023-01-10T00:13:22;16.20;;;11.10;;
23634;SDS011;11994;51.038;16.974;2023-01-10T00:15:48;16.80;;;11.30;;
23634;SDS011;11994;51.038;16.974;2023-01-10T00:18:14;17.00;;;11.70;;
23634;SDS011;11994;51.038;16.974;2023-01-10T00:20:40;16.50;;;11.30;;
23634;SDS011;11994;51.038;16.974;2023-01-10T00:23:05;22.90;;;12.50;;
23634;SDS011;11994;51.038;16.974;2023-01-10T00:25:31;16.40;;;11.30;;
23634;SDS011;11994;51.038;16.974;2023-01-10T00:28:00;16.60;;;11.30;;
23634;SDS011;11994;51.038;16.974;2023-01-10T00:30:36;16.90;;;11.40;;
23634;SDS011;11994;51.038;16.974;2023-01-10T00:33:03;17.50;;;12.00;;
23634;SDS011;11994;51.038;16.974;2023-01-10T00:35:29;16.50;;;11.60;;
23634;SDS011;11994;51.038;16.974;2023-01-10T00:37:54;18.60;;;11.30;;
23634;SDS011;11994;51.038;16.974;2023-01-10T00:42:51;18.30;;;12.10;;
23634;SDS011;11994;51.038;16.974;2023-01-10T00:45:34;18.00;;;11.90;;
23634;SDS011;11994;51.038;16.974;2023-01-10T00:48:00;19.80;;;12.50;;
23634;SDS011;11994;51.038;16.974;2023-01-10T00:50:26;15.00;;;11.20;;
23634;SDS011;11994;51.038;16.974;2023-01-10T00:52:51;17.80;;;11.60;;
23634;SDS011;11994;51.038;16.974;2023-01-10T00:55:16;16.60;;;11.60;;
23634;SDS011;11994;51.038;16.974;2023-01-10T00:57:42;17.40;;;11.90;;
23634;SDS011;11994;51.038;16.974;2023-01-10T01:00:07;19.30;;;12.20;;
23634;SDS011;11994;51.038;16.974;2023-01-10T01:02:34;21.10;;;12.70;;
23634;SDS011;11994;51.038;16.974;2023-01-10T01:04:59;19.60;;;12.60;;
23634;SDS011;11994;51.038;16.974;2023-01-10T01:07:25;16.30;;;12.10;;
23634;SDS011;11994;51.038;16.974;2023-01-10T01:09:50;17.70;;;12.20;;
23634;SDS011;11994;51.038;16.974;2023-01-10T01:12:34;16.60;;;10.40;;
23634;SDS011;11994;51.038;16.974;2023-01-10T01:15:00;16.80;;;10.40;;
23634;SDS011;11994;51.038;16.974;2023-01-10T01:17:25;14.10;;;10.10;;
23634;SDS011;11994;51.038;16.974;2023-01-10T01:19:50;17.00;;;10.50;;
23634;SDS011;11994;51.038;16.974;2023-01-10T01:22:16;15.80;;;11.00;;
23634;SDS011;11994;51.038;16.974;2023-01-10T01:24:41;18.60;;;11.20;;
23634;SDS011;11994;51.038;16.974;2023-01-10T01:27:06;18.60;;;11.80;;
23634;SDS011;11994;51.038;16.974;2023-01-10T01:29:32;19.80;;;13.00;;
23634;SDS011;11994;51.038;16.974;2023-01-10T01:31:57;17.60;;;11.90;;
23634;SDS011;11994;51.038;16.974;2023-01-10T01:34:22;21.30;;;12.30;;
23634;SDS011;11994;51.038;16.974;2023-01-10T01:36:48;17.70;;;12.30;;
23634;SDS011;11994;51.038;16.974;2023-01-10T01:39:15;21.60;;;12.70;;
23634;SDS011;11994;51.038;16.974;2023-01-10T01:41:40;17.60;;;12.40;;
23634;SDS011;11994;51.038;16.974;2023-01-10T01:44:21;18.80;;;12.70;;
23634;SDS011;11994;51.038;16.974;2023-01-10T01:46:53;18.70;;;12.40;;
23634;SDS011;11994;51.038;16.974;2023-01-10T01:49:21;23.10;;;13.90;;
23634;SDS011;11994;51.038;16.974;2023-01-10T01:51:49;21.10;;;13.80;;
23634;SDS011;11994;51.038;16.974;2023-01-10T01:54:20;18.50;;;12.20;;
23634;SDS011;11994;51.038;16.974;2023-01-10T01:56:50;17.20;;;11.20;;
23634;SDS011;11994;51.038;16.974;2023-01-10T01:59:22;20.80;;;12.60;;
23634;SDS011;11994;51.038;16.974;2023-01-10T02:01:51;16.50;;;11.50;;
23634;SDS011;11994;51.038;16.974;2023-01-10T02:04:23;18.60;;;12.20;;
23634;SDS011;11994;51.038;16.974;2023-01-10T02:06:56;18.10;;;12.00;;
23634;SDS011;11994;51.038;16.974;2023-01-10T02:12:11;17.90;;;12.10;;
23634;SDS011;11994;51.038;16.974;2023-01-10T02:14:38;17.90;;;11.00;;
23634;SDS011;11994;51.038;16.974;2023-01-10T02:17:07;16.40;;;10.50;;
23634;SDS011;11994;51.038;16.974;2023-01-10T02:19:53;16.50;;;11.20;;
23634;SDS011;11994;51.038;16.974;2023-01-10T02:30:56;18.10;;;10.40;;
23634;SDS011;11994;51.038;16.974;2023-01-10T02:33:56;14.70;;;9.20;;
23634;SDS011;11994;51.038;16.974;2023-01-10T02:39:04;15.70;;;9.50;;
23634;SDS011;11994;51.038;16.974;2023-01-10T02:42:12;14.10;;;9.20;;
23634;SDS011;11994;51.038;16.974;2023-01-10T02:44:49;12.30;;;8.70;;
23634;SDS011;11994;51.038;16.974;2023-01-10T02:47:20;11.60;;;8.80;;
23634;SDS011;11994;51.038;16.974;2023-01-10T02:49:47;15.80;;;9.00;;
23634;SDS011;11994;51.038;16.974;2023-01-10T02:52:16;14.40;;;8.20;;
23634;SDS011;11994;51.038;16.974;2023-01-10T02:55:01;13.70;;;7.90;;
23634;SDS011;11994;51.038;16.974;2023-01-10T02:57:35;11.80;;;7.70;;
23634;SDS011;11994;51.038;16.974;2023-01-10T03:00:08;11.60;;;7.10;;
23634;SDS011;11994;51.038;16.974;2023-01-10T03:03:01;13.00;;;7.90;;
23634;SDS011;11994;51.038;16.974;2023-01-10T03:11:07;13.70;;;6.70;;
23634;SDS011;11994;51.038;16.974;2023-01-10T03:16:06;9.50;;;6.30;;
23634;SDS011;11994;51.038;16.974;2023-01-10T03:18:40;8.80;;;5.60;;
23634;SDS011;11994;51.038;16.974;2023-01-10T03:21:10;10.30;;;5.80;;
23634;SDS011;11994;51.038;16.974;2023-01-10T03:23:37;10.60;;;5.50;;
23634;SDS011;11994;51.038;16.974;2023-01-10T03:26:03;9.80;;;5.70;;
23634;SDS011;11994;51.038;16.974;2023-01-10T03:28:50;10.10;;;5.50;;
23634;SDS011;11994;51.038;16.974;2023-01-10T03:31:22;8.30;;;4.60;;
23634;SDS011;11994;51.038;16.974;2023-01-10T03:33:52;7.00;;;4.40;;
23634;SDS011;11994;51.038;16.974;2023-01-10T03:39:19;8.30;;;4.20;;
23634;SDS011;11994;51.038;16.974;2023-01-10T03:42:10;7.30;;;4.10;;
23634;SDS011;11994;51.038;16.974;2023-01-10T03:44:49;8.20;;;4.30;;
23634;SDS011;11994;51.038;16.974;2023-01-10T03:47:37;8.30;;;4.10;;
23634;SDS011;11994;51.038;16.974;2023-01-10T03:50:06;6.70;;;3.50;;
23634;SDS011;11994;51.038;16.974;2023-01-10T03:52:35;6.10;;;3.30;;
23634;SDS011;11994;51.038;16.974;2023-01-10T03:55:01;6.90;;;3.50;;
23634;SDS011;11994;51.038;16.974;2023-01-10T03:57:29;6.50;;;3.20;;
23634;SDS011;11994;51.038;16.974;2023-01-10T03:59:55;7.20;;;3.70;;
23634;SDS011;11994;51.038;16.974;2023-01-10T04:02:24;8.70;;;3.80;;
23634;SDS011;11994;51.038;16.974;2023-01-10T04:04:54;5.60;;;3.60;;
23634;SDS011;11994;51.038;16.974;2023-01-10T04:07:20;7.30;;;3.40;;
23634;SDS011;11994;51.038;16.974;2023-01-10T04:09:45;5.80;;;3.50;;
23634;SDS011;11994;51.038;16.974;2023-01-10T04:12:11;5.70;;;3.20;;
23634;SDS011;11994;51.038;16.974;2023-01-10T04:14:36;6.90;;;3.80;;
23634;SDS011;11994;51.038;16.974;2023-01-10T04:17:02;5.40;;;3.50;;
23634;SDS011;11994;51.038;16.974;2023-01-10T04:19:27;6.60;;;4.00;;
23634;SDS011;11994;51.038;16.974;2023-01-10T04:21:53;6.50;;;3.60;;
23634;SDS011;11994;51.038;16.974;2023-01-10T04:24:18;6.90;;;3.90;;
23634;SDS011;11994;51.038;16.974;2023-01-10T04:26:43;7.50;;;4.10;;
23634;SDS011;11994;51.038;16.974;2023-01-10T04:29:09;10.00;;;4.10;;
23634;SDS011;11994;51.038;16.974;2023-01-10T04:31:35;7.10;;;3.80;;
23634;SDS011;11994;51.038;16.974;2023-01-10T04:34:00;9.20;;;4.30;;
23634;SDS011;11994;51.038;16.974;2023-01-10T04:36:26;8.10;;;4.30;;
23634;SDS011;11994;51.038;16.974;2023-01-10T04:38:51;7.50;;;4.50;;
23634;SDS011;11994;51.038;16.974;2023-01-10T04:41:17;7.20;;;4.20;;
23634;SDS011;11994;51.038;16.974;2023-01-10T04:43:43;7.50;;;4.40;;
23634;SDS011;11994;51.038;16.974;2023-01-10T04:46:08;5.90;;;4.10;;
23634;SDS011;11994;51.038;16.974;2023-01-10T04:48:34;7.30;;;4.70;;
23634;SDS011;11994;51.038;16.974;2023-01-10T04:51:01;7.60;;;4.80;;
23634;SDS011;11994;51.038;16.974;2023-01-10T04:53:27;7.70;;;4.70;;
23634;SDS011;11994;51.038;16.974;2023-01-10T04:55:52;9.10;;;5.10;;
23634;SDS011;11994;51.038;16.974;2023-01-10T04:58:17;8.30;;;4.80;;
23634;SDS011;11994;51.038;16.974;2023-01-10T05:00:43;9.40;;;4.90;;
23634;SDS011;11994;51.038;16.974;2023-01-10T05:03:08;6.90;;;4.40;;
23634;SDS011;11994;51.038;16.974;2023-01-10T05:05:34;11.90;;;4.80;;
23634;SDS011;11994;51.038;16.974;2023-01-10T05:07:59;7.20;;;4.70;;
23634;SDS011;11994;51.038;16.974;2023-01-10T05:10:24;7.50;;;5.10;;
23634;SDS011;11994;51.038;16.974;2023-01-10T05:12:50;8.90;;;5.30;;
23634;SDS011;11994;51.038;16.974;2023-01-10T05:15:15;13.50;;;5.60;;
23634;SDS011;11994;51.038;16.974;2023-01-10T05:17:41;10.30;;;5.50;;
23634;SDS011;11994;51.038;16.974;2023-01-10T05:20:07;9.40;;;5.20;;
23634;SDS011;11994;51.038;16.974;2023-01-10T05:22:33;9.20;;;6.00;;
23634;SDS011;11994;51.038;16.974;2023-01-10T05:24:58;8.80;;;5.50;;
23634;SDS011;11994;51.038;16.974;2023-01-10T05:27:24;11.60;;;6.20;;
23634;SDS011;11994;51.038;16.974;2023-01-10T05:29:49;10.00;;;6.60;;
23634;SDS011;11994;51.038;16.974;2023-01-10T05:32:14;9.20;;;5.40;;
23634;SDS011;11994;51.038;16.974;2023-01-10T05:34:40;9.40;;;4.90;;
23634;SDS011;11994;51.038;16.974;2023-01-10T05:37:06;8.30;;;5.10;;
23634;SDS011;11994;51.038;16.974;2023-01-10T05:39:32;7.60;;;4.80;;
23634;SDS011;11994;51.038;16.974;2023-01-10T05:41:57;7.10;;;5.10;;
23634;SDS011;11994;51.038;16.974;2023-01-10T05:44:22;8.30;;;5.40;;
23634;SDS011;11994;51.038;16.974;2023-01-10T05:46:48;10.10;;;5.50;;
23634;SDS011;11994;51.038;16.974;2023-01-10T05:49:13;10.20;;;4.80;;
23634;SDS011;11994;51.038;16.974;2023-01-10T05:51:38;9.40;;;4.90;;
23634;SDS011;11994;51.038;16.974;2023-01-10T05:54:04;11.30;;;5.40;;
23634;SDS011;11994;51.038;16.974;2023-01-10T05:56:29;7.60;;;4.90;;
23634;SDS011;11994;51.038;16.974;2023-01-10T05:58:55;8.10;;;4.90;;
23634;SDS011;11994;51.038;16.974;2023-01-10T06:01:20;9.30;;;4.90;;
23634;SDS011;11994;51.038;16.974;2023-01-10T06:03:46;6.70;;;4.50;;
23634;SDS011;11994;51.038;16.974;2023-01-10T06:06:12;9.20;;;4.90;;
23634;SDS011;11994;51.038;16.974;2023-01-10T06:08:37;9.40;;;4.50;;
23634;SDS011;11994;51.038;16.974;2023-01-10T06:11:03;7.90;;;4.60;;
23634;SDS011;11994;51.038;16.974;2023-01-10T06:13:29;6.40;;;4.00;;
23634;SDS011;11994;51.038;16.974;2023-01-10T06:15:54;6.50;;;4.30;;
23634;SDS011;11994;51.038;16.974;2023-01-10T06:18:20;10.40;;;4.80;;
23634;SDS011;11994;51.038;16.974;2023-01-10T06:20:45;7.70;;;5.00;;
23634;SDS011;11994;51.038;16.974;2023-01-10T06:23:11;8.70;;;5.00;;
23634;SDS011;11994;51.038;16.974;2023-01-10T06:25:36;6.90;;;4.20;;
23634;SDS011;11994;51.038;16.974;2023-01-10T06:28:09;7.00;;;4.50;;
23634;SDS011;11994;51.038;16.974;2023-01-10T06:30:35;9.20;;;4.80;;
23634;SDS011;11994;51.038;16.974;2023-01-10T06:33:05;7.60;;;4.60;;
23634;SDS011;11994;51.038;16.974;2023-01-10T06:35:31;9.60;;;5.10;;
23634;SDS011;11994;51.038;16.974;2023-01-10T06:37:57;9.80;;;4.90;;
23634;SDS011;11994;51.038;16.974;2023-01-10T06:40:23;6.90;;;4.80;;
23634;SDS011;11994;51.038;16.974;2023-01-10T06:42:50;12.00;;;4.70;;
23634;SDS011;11994;51.038;16.974;2023-01-10T06:45:15;8.00;;;4.30;;
23634;SDS011;11994;51.038;16.974;2023-01-10T06:47:41;7.60;;;4.40;;
23634;SDS011;11994;51.038;16.974;2023-01-10T06:50:07;8.30;;;4.80;;
23634;SDS011;11994;51.038;16.974;2023-01-10T06:52:33;9.80;;;5.10;;
23634;SDS011;11994;51.038;16.974;2023-01-10T06:54:58;6.50;;;4.20;;
23634;SDS011;11994;51.038;16.974;2023-01-10T06:57:24;7.80;;;4.50;;
23634;SDS011;11994;51.038;16.974;2023-01-10T06:59:49;9.00;;;4.10;;
23634;SDS011;11994;51.038;16.974;2023-01-10T07:02:15;9.90;;;5.00;;
23634;SDS011;11994;51.038;16.974;2023-01-10T07:04:41;9.60;;;5.30;;
23634;SDS011;11994;51.038;16.974;2023-01-10T07:07:06;10.20;;;6.00;;
23634;SDS011;11994;51.038;16.974;2023-01-10T07:09:32;9.70;;;6.30;;
23634;SDS011;11994;51.038;16.974;2023-01-10T07:11:57;8.50;;;5.80;;
23634;SDS011;11994;51.038;16.974;2023-01-10T07:14:22;8.50;;;5.70;;
23634;SDS011;11994;51.038;16.974;2023-01-10T07:16:48;13.40;;;6.70;;
23634;SDS011;11994;51.038;16.974;2023-01-10T07:19:13;12.10;;;7.70;;
23634;SDS011;11994;51.038;16.974;2023-01-10T07:21:41;12.70;;;8.00;;
23634;SDS011;11994;51.038;16.974;2023-01-10T07:24:06;11.00;;;7.10;;
23634;SDS011;11994;51.038;16.974;2023-01-10T07:26:32;14.00;;;7.00;;
23634;SDS011;11994;51.038;16.974;2023-01-10T07:28:58;11.80;;;5.60;;
23634;SDS011;11994;51.038;16.974;2023-01-10T07:31:23;11.80;;;5.70;;
23634;SDS011;11994;51.038;16.974;2023-01-10T07:33:49;10.30;;;6.20;;
23634;SDS011;11994;51.038;16.974;2023-01-10T07:36:16;8.60;;;6.00;;
23634;SDS011;11994;51.038;16.974;2023-01-10T07:38:41;10.70;;;6.00;;
23634;SDS011;11994;51.038;16.974;2023-01-10T07:41:07;7.60;;;5.50;;
23634;SDS011;11994;51.038;16.974;2023-01-10T07:43:33;10.30;;;5.30;;
23634;SDS011;11994;51.038;16.974;2023-01-10T07:45:59;7.80;;;5.20;;
23634;SDS011;11994;51.038;16.974;2023-01-10T07:48:25;8.10;;;5.30;;
23634;SDS011;11994;51.038;16.974;2023-01-10T07:50:54;14.60;;;5.90;;
23634;SDS011;11994;51.038;16.974;2023-01-10T07:53:22;9.70;;;5.50;;
23634;SDS011;11994;51.038;16.974;2023-01-10T07:55:48;10.40;;;5.60;;
23634;SDS011;11994;51.038;16.974;2023-01-10T07:58:14;11.70;;;4.90;;
23634;SDS011;11994;51.038;16.974;2023-01-10T08:00:39;12.20;;;5.50;;
23634;SDS011;11994;51.038;16.974;2023-01-10T08:03:05;8.30;;;5.30;;
23634;SDS011;11994;51.038;16.974;2023-01-10T08:05:30;12.00;;;5.60;;
23634;SDS011;11994;51.038;16.974;2023-01-10T08:07:56;8.30;;;5.40;;
23634;SDS011;11994;51.038;16.974;2023-01-10T08:10:24;8.90;;;5.50;;
23634;SDS011;11994;51.038;16.974;2023-01-10T08:12:50;9.40;;;5.40;;
23634;SDS011;11994;51.038;16.974;2023-01-10T08:15:15;6.50;;;4.90;;
23634;SDS011;11994;51.038;16.974;2023-01-10T08:17:41;9.50;;;5.30;;
23634;SDS011;11994;51.038;16.974;2023-01-10T08:20:06;6.90;;;4.90;;
23634;SDS011;11994;51.038;16.974;2023-01-10T08:22:33;12.40;;;6.10;;
23634;SDS011;11994;51.038;16.974;2023-01-10T08:24:58;7.20;;;5.40;;
23634;SDS011;11994;51.038;16.974;2023-01-10T08:27:24;9.20;;;5.00;;
23634;SDS011;11994;51.038;16.974;2023-01-10T08:29:49;9.30;;;5.30;;
23634;SDS011;11994;51.038;16.974;2023-01-10T08:32:15;8.20;;;4.90;;
23634;SDS011;11994;51.038;16.974;2023-01-10T08:34:40;11.30;;;5.60;;
23634;SDS011;11994;51.038;16.974;2023-01-10T08:37:05;8.20;;;5.60;;
23634;SDS011;11994;51.038;16.974;2023-01-10T08:39:31;8.20;;;5.50;;
23634;SDS011;11994;51.038;16.974;2023-01-10T08:41:56;10.50;;;5.50;;
23634;SDS011;11994;51.038;16.974;2023-01-10T08:44:22;11.60;;;5.40;;
23634;SDS011;11994;51.038;16.974;2023-01-10T08:46:47;8.70;;;6.00;;
23634;SDS011;11994;51.038;16.974;2023-01-10T08:49:13;13.50;;;6.20;;
23634;SDS011;11994;51.038;16.974;2023-01-10T08:51:39;11.50;;;6.20;;
23634;SDS011;11994;51.038;16.974;2023-01-10T08:54:04;11.40;;;6.60;;
23634;SDS011;11994;51.038;16.974;2023-01-10T08:56:30;12.00;;;5.90;;
23634;SDS011;11994;51.038;16.974;2023-01-10T08:58:55;17.30;;;5.70;;
23634;SDS011;11994;51.038;16.974;2023-01-10T09:01:21;8.90;;;5.50;;
23634;SDS011;11994;51.038;16.974;2023-01-10T09:03:46;10.60;;;5.80;;
23634;SDS011;11994;51.038;16.974;2023-01-10T09:06:11;11.10;;;5.70;;
23634;SDS011;11994;51.038;16.974;2023-01-10T09:08:37;7.30;;;4.80;;
23634;SDS011;11994;51.038;16.974;2023-01-10T09:11:03;8.00;;;4.50;;
23634;SDS011;11994;51.038;16.974;2023-01-10T09:13:30;11.30;;;4.60;;
23634;SDS011;11994;51.038;16.974;2023-01-10T09:15:58;8.10;;;4.50;;
23634;SDS011;11994;51.038;16.974;2023-01-10T09:18:24;9.80;;;5.30;;
23634;SDS011;11994;51.038;16.974;2023-01-10T09:20:50;9.30;;;4.90;;
23634;SDS011;11994;51.038;16.974;2023-01-10T09:23:17;13.30;;;5.40;;
23634;SDS011;11994;51.038;16.974;2023-01-10T09:25:44;9.30;;;5.00;;
23634;SDS011;11994;51.038;16.974;2023-01-10T09:28:11;7.30;;;4.30;;
23634;SDS011;11994;51.038;16.974;2023-01-10T09:30:36;7.20;;;4.40;;
23634;SDS011;11994;51.038;16.974;2023-01-10T09:33:02;8.30;;;4.70;;
23634;SDS011;11994;51.038;16.974;2023-01-10T09:35:29;7.70;;;4.90;;
23634;SDS011;11994;51.038;16.974;2023-01-10T09:37:56;7.90;;;5.10;;
23634;SDS011;11994;51.038;16.974;2023-01-10T09:51:53;10.90;;;5.40;;
23634;SDS011;11994;51.038;16.974;2023-01-10T09:56:55;12.30;;;5.70;;
23634;SDS011;11994;51.038;16.974;2023-01-10T09:59:24;10.00;;;5.90;;
23634;SDS011;11994;51.038;16.974;2023-01-10T10:01:54;11.70;;;5.70;;
23634;SDS011;11994;51.038;16.974;2023-01-10T10:04:35;10.50;;;5.80;;
23634;SDS011;11994;51.038;16.974;2023-01-10T10:07:04;9.40;;;5.80;;
23634;SDS011;11994;51.038;16.974;2023-01-10T10:09:36;11.60;;;5.80;;
23634;SDS011;11994;51.038;16.974;2023-01-10T10:20:18;13.90;;;6.10;;
23634;SDS011;11994;51.038;16.974;2023-01-10T10:25:38;11.20;;;6.50;;
23634;SDS011;11994;51.038;16.974;2023-01-10T10:38:44;9.60;;;4.90;;
23634;SDS011;11994;51.038;16.974;2023-01-10T10:41:16;10.70;;;5.30;;
23634;SDS011;11994;51.038;16.974;2023-01-10T10:43:52;11.90;;;5.10;;
23634;SDS011;11994;51.038;16.974;2023-01-10T10:46:18;11.80;;;6.40;;
23634;SDS011;11994;51.038;16.974;2023-01-10T10:51:31;11.20;;;6.00;;
23634;SDS011;11994;51.038;16.974;2023-01-10T10:54:03;10.60;;;5.80;;
23634;SDS011;11994;51.038;16.974;2023-01-10T10:56:31;10.00;;;5.50;;
23634;SDS011;11994;51.038;16.974;2023-01-10T10:58:57;13.50;;;6.30;;
23634;SDS011;11994;51.038;16.974;2023-01-10T11:01:24;13.90;;;6.50;;
23634;SDS011;11994;51.038;16.974;2023-01-10T11:06:18;10.40;;;5.80;;
23634;SDS011;11994;51.038;16.974;2023-01-10T11:08:45;12.30;;;6.10;;
23634;SDS011;11994;51.038;16.974;2023-01-10T11:14:07;12.40;;;6.00;;
23634;SDS011;11994;51.038;16.974;2023-01-10T11:16:37;10.90;;;6.00;;
23634;SDS011;11994;51.038;16.974;2023-01-10T11:19:20;13.60;;;5.40;;
23634;SDS011;11994;51.038;16.974;2023-01-10T11:24:24;10.50;;;5.70;;
23634;SDS011;11994;51.038;16.974;2023-01-10T11:26:52;14.20;;;6.40;;
23634;SDS011;11994;51.038;16.974;2023-01-10T11:29:20;15.70;;;6.30;;
23634;SDS011;11994;51.038;16.974;2023-01-10T11:31:55;14.80;;;6.70;;
23634;SDS011;11994;51.038;16.974;2023-01-10T11:34:22;9.40;;;5.10;;
23634;SDS011;11994;51.038;16.974;2023-01-10T11:37:00;12.20;;;5.40;;
23634;SDS011;11994;51.038;16.974;2023-01-10T11:39:41;12.70;;;4.90;;
23634;SDS011;11994;51.038;16.974;2023-01-10T11:44:48;13.20;;;6.20;;
23634;SDS011;11994;51.038;16.974;2023-01-10T11:47:13;17.70;;;6.20;;
23634;SDS011;11994;51.038;16.974;2023-01-10T11:49:41;12.40;;;5.20;;
23634;SDS011;11994;51.038;16.974;2023-01-10T11:52:26;10.20;;;5.10;;
23634;SDS011;11994;51.038;16.974;2023-01-10T11:54:54;11.80;;;5.20;;
23634;SDS011;11994;51.038;16.974;2023-01-10T11:57:28;11.50;;;5.60;;
23634;SDS011;11994;51.038;16.974;2023-01-10T12:02:24;14.00;;;5.60;;
23634;SDS011;11994;51.038;16.974;2023-01-10T12:04:53;13.30;;;6.60;;
23634;SDS011;11994;51.038;16.974;2023-01-10T12:07:20;12.10;;;5.20;;
23634;SDS011;11994;51.038;16.974;2023-01-10T12:09:57;12.60;;;5.60;;
23634;SDS011;11994;51.038;16.974;2023-01-10T12:12:27;15.60;;;4.90;;
23634;SDS011;11994;51.038;16.974;2023-01-10T12:14:56;13.00;;;5.40;;
23634;SDS011;11994;51.038;16.974;2023-01-10T12:17:33;15.40;;;6.00;;
23634;SDS011;11994;51.038;16.974;2023-01-10T12:20:00;10.70;;;5.50;;
23634;SDS011;11994;51.038;16.974;2023-01-10T12:22:37;14.80;;;5.50;;
23634;SDS011;11994;51.038;16.974;2023-01-10T12:25:09;15.90;;;5.90;;
23634;SDS011;11994;51.038;16.974;2023-01-10T12:27:38;13.70;;;5.30;;
23634;SDS011;11994;51.038;16.974;2023-01-10T12:30:49;18.70;;;6.20;;
23634;SDS011;11994;51.038;16.974;2023-01-10T12:38:35;10.30;;;5.40;;
23634;SDS011;11994;51.038;16.974;2023-01-10T12:41:27;13.60;;;5.50;;
23634;SDS011;11994;51.038;16.974;2023-01-10T12:44:19;15.40;;;6.10;;
23634;SDS011;11994;51.038;16.974;2023-01-10T12:46:53;12.40;;;5.70;;
23634;SDS011;11994;51.038;16.974;2023-01-10T12:49:26;15.00;;;5.70;;
23634;SDS011;11994;51.038;16.974;2023-01-10T12:51:57;11.30;;;5.10;;
23634;SDS011;11994;51.038;16.974;2023-01-10T12:54:28;11.00;;;4.40;;
23634;SDS011;11994;51.038;16.974;2023-01-10T12:56:54;11.90;;;4.50;;
23634;SDS011;11994;51.038;16.974;2023-01-10T13:02:05;11.90;;;5.40;;
23634;SDS011;11994;51.038;16.974;2023-01-10T13:04:36;12.00;;;5.20;;
23634;SDS011;11994;51.038;16.974;2023-01-10T13:07:05;11.80;;;5.30;;
23634;SDS011;11994;51.038;16.974;2023-01-10T13:09:31;10.40;;;5.00;;
23634;SDS011;11994;51.038;16.974;2023-01-10T13:14:47;12.50;;;5.40;;
23634;SDS011;11994;51.038;16.974;2023-01-10T13:22:41;12.70;;;5.50;;
23634;SDS011;11994;51.038;16.974;2023-01-10T13:25:25;8.40;;;4.80;;
23634;SDS011;11994;51.038;16.974;2023-01-10T13:28:05;11.90;;;5.10;;
23634;SDS011;11994;51.038;16.974;2023-01-10T13:30:40;11.60;;;5.40;;
23634;SDS011;11994;51.038;16.974;2023-01-10T13:33:06;12.10;;;5.90;;
23634;SDS011;11994;51.038;16.974;2023-01-10T13:35:53;13.20;;;6.10;;
23634;SDS011;11994;51.038;16.974;2023-01-10T13:38:43;11.40;;;5.70;;
23634;SDS011;11994;51.038;16.974;2023-01-10T13:41:17;12.20;;;5.70;;
23634;SDS011;11994;51.038;16.974;2023-01-10T13:44:12;10.30;;;5.70;;
23634;SDS011;11994;51.038;16.974;2023-01-10T13:46:39;12.50;;;6.10;;
23634;SDS011;11994;51.038;16.974;2023-01-10T13:51:35;11.60;;;6.00;;
23634;SDS011;11994;51.038;16.974;2023-01-10T13:54:03;13.70;;;6.10;;
23634;SDS011;11994;51.038;16.974;2023-01-10T13:56:48;12.50;;;5.80;;
23634;SDS011;11994;51.038;16.974;2023-01-10T14:02:12;10.90;;;5.90;;
23634;SDS011;11994;51.038;16.974;2023-01-10T14:04:54;11.80;;;6.10;;
23634;SDS011;11994;51.038;16.974;2023-01-10T14:07:53;11.40;;;6.10;;
23634;SDS011;11994;51.038;16.974;2023-01-10T14:10:25;11.10;;;5.90;;
23634;SDS011;11994;51.038;16.974;2023-01-10T14:12:54;11.30;;;5.60;;
23634;SDS011;11994;51.038;16.974;2023-01-10T14:15:24;16.70;;;6.70;;
23634;SDS011;11994;51.038;16.974;2023-01-10T14:17:57;15.20;;;6.70;;
23634;SDS011;11994;51.038;16.974;2023-01-10T14:20:23;14.30;;;6.40;;
23634;SDS011;11994;51.038;16.974;2023-01-10T14:22:56;13.70;;;6.90;;
23634;SDS011;11994;51.038;16.974;2023-01-10T14:25:34;12.80;;;6.60;;
23634;SDS011;11994;51.038;16.974;2023-01-10T14:28:01;13.10;;;5.90;;
23634;SDS011;11994;51.038;16.974;2023-01-10T14:30:32;12.20;;;6.10;;
23634;SDS011;11994;51.038;16.974;2023-01-10T14:33:21;13.30;;;6.50;;
23634;SDS011;11994;51.038;16.974;2023-01-10T14:35:49;16.70;;;6.70;;
23634;SDS011;11994;51.038;16.974;2023-01-10T14:40:56;14.10;;;7.70;;
23634;SDS011;11994;51.038;16.974;2023-01-10T14:43:26;13.80;;;6.30;;
23634;SDS011;11994;51.038;16.974;2023-01-10T14:48:50;14.90;;;8.60;;
23634;SDS011;11994;51.038;16.974;2023-01-10T14:54:02;16.50;;;7.60;;
23634;SDS011;11994;51.038;16.974;2023-01-10T14:56:37;16.50;;;7.30;;
23634;SDS011;11994;51.038;16.974;2023-01-10T15:01:53;16.40;;;8.50;;
23634;SDS011;11994;51.038;16.974;2023-01-10T15:04:22;17.80;;;9.00;;
23634;SDS011;11994;51.038;16.974;2023-01-10T15:06:54;18.10;;;9.20;;
23634;SDS011;11994;51.038;16.974;2023-01-10T15:09:27;16.70;;;9.20;;
23634;SDS011;11994;51.038;16.974;2023-01-10T15:11:54;17.80;;;9.70;;
23634;SDS011;11994;51.038;16.974;2023-01-10T15:14:23;17.00;;;10.00;;
23634;SDS011;11994;51.038;16.974;2023-01-10T15:16:51;20.70;;;12.30;;
23634;SDS011;11994;51.038;16.974;2023-01-10T15:19:21;24.70;;;12.80;;
23634;SDS011;11994;51.038;16.974;2023-01-10T15:21:48;22.60;;;11.40;;
23634;SDS011;11994;51.038;16.974;2023-01-10T15:26:57;15.70;;;11.00;;
23634;SDS011;11994;51.038;16.974;2023-01-10T15:29:24;13.70;;;9.50;;
23634;SDS011;11994;51.038;16.974;2023-01-10T15:31:51;18.70;;;10.00;;
23634;SDS011;11994;51.038;16.974;2023-01-10T15:34:20;18.40;;;10.20;;
23634;SDS011;11994;51.038;16.974;2023-01-10T15:39:18;13.60;;;8.50;;
23634;SDS011;11994;51.038;16.974;2023-01-10T15:41:46;13.10;;;8.60;;
23634;SDS011;11994;51.038;16.974;2023-01-10T15:46:59;12.70;;;9.20;;
23634;SDS011;11994;51.038;16.974;2023-01-10T15:49:24;14.10;;;10.00;;
23634;SDS011;11994;51.038;16.974;2023-01-10T15:51:50;15.90;;;10.40;;
23634;SDS011;11994;51.038;16.974;2023-01-10T15:59:30;17.50;;;10.00;;
23634;SDS011;11994;51.038;16.974;2023-01-10T16:02:03;19.30;;;10.60;;
23634;SDS011;11994;51.038;16.974;2023-01-10T16:04:40;16.50;;;10.20;;
23634;SDS011;11994;51.038;16.974;2023-01-10T16:07:09;17.60;;;11.20;;
23634;SDS011;11994;51.038;16.974;2023-01-10T16:09:40;19.00;;;10.90;;
23634;SDS011;11994;51.038;16.974;2023-01-10T16:12:22;20.10;;;11.00;;
23634;SDS011;11994;51.038;16.974;2023-01-10T16:15:29;19.60;;;11.50;;
23634;SDS011;11994;51.038;16.974;2023-01-10T16:17:56;15.60;;;11.10;;
23634;SDS011;11994;51.038;16.974;2023-01-10T16:20:24;19.80;;;10.50;;
23634;SDS011;11994;51.038;16.974;2023-01-10T16:22:53;18.90;;;10.60;;
23634;SDS011;11994;51.038;16.974;2023-01-10T16:25:22;18.30;;;11.40;;
23634;SDS011;11994;51.038;16.974;2023-01-10T16:27:55;19.60;;;10.90;;
23634;SDS011;11994;51.038;16.974;2023-01-10T16:30:23;15.90;;;9.40;;
23634;SDS011;11994;51.038;16.974;2023-01-10T16:32:50;15.00;;;9.30;;
23634;SDS011;11994;51.038;16.974;2023-01-10T16:35:16;16.00;;;9.10;;
23634;SDS011;11994;51.038;16.974;2023-01-10T16:37:43;15.40;;;9.00;;
23634;SDS011;11994;51.038;16.974;2023-01-10T16:40:15;17.20;;;9.40;;